< < Back
Terminal Aerodrome Forecast


Current Version              Previous Versions:   1  2  3  4  5  6  7  8  9  

Terminal Aerodrome Forecast

002
FTUS42 KMLB 041245 AAA
TAFMCO
TAF AMD
KMCO 041245Z 0413/0512 15007KT P6SM VCSH FEW009 SCT050 BKN090
     FM041400 23008G16KT P6SM VCTS BKN025CB OVC100
     FM042000 27008KT P6SM VCSH BKN025 BKN040=

Latest METAR

381
SAUS70 KWBC 042100 RRC
MTRMCO
METAR KMCO 042053Z 15014KT 10SM FEW008 SCT100 BKN160 OVC300 21/19 A2964
RMK AO2 PRESFR SLP035 60011 T02110189 58066


USA.gov is the U.S. government's official web portal to all federal, state and local government web resources and services.